Time;durP1;ratioP1;P1;durP2;ratioP2;P2;SDS_P1;SDS_P2;PMS_P1;PMS_P2;Temp;Humidity;BMP_temperature;BMP_pressure;BME280_temperature;BME280_humidity;BME280_pressure;Samples;Min_cycle;Max_cycle;Signal;HPM_P1;HPM_P2
2021/11/30 00:01:12;;;;;;;8.05;6.45;;;;;;;3.79;72.75;97253.47;1675709;84;21042;-79
2021/11/30 00:03:39;;;;;;;7.67;6.30;;;;;;;3.79;72.73;97285.37;1657534;82;21053;-81
2021/11/30 00:06:07;;;;;;;8.75;7.17;;;;;;;3.80;72.68;97302.92;1707016;82;21321;-80
2021/11/30 00:08:36;;;;;;;9.83;6.08;;;;;;;3.82;72.78;97270.23;1727651;82;20966;-78
2021/11/30 00:11:05;;;;;;;7.85;5.60;;;;;;;3.83;72.91;97275.02;1734310;82;21571;-77
2021/11/30 00:13:34;;;;;;;8.90;7.00;;;;;;;3.84;73.01;97284.05;1694278;82;21015;-83
2021/11/30 00:16:02;;;;;;;8.10;6.78;;;;;;;3.85;73.10;97279.53;1708164;82;21110;-79
2021/11/30 00:18:33;;;;;;;7.62;6.25;;;;;;;3.85;73.10;97308.77;1686475;82;20927;-81
2021/11/30 00:21:07;;;;;;;7.55;5.97;;;;;;;3.85;73.36;97293.62;1709942;82;21089;-72
2021/11/30 00:23:35;;;;;;;8.15;6.55;;;;;;;3.85;73.45;97302.92;1733226;82;21026;-74
2021/11/30 00:26:03;;;;;;;8.53;6.10;;;;;;;3.85;73.55;97328.18;1731257;82;21516;-75
2021/11/30 00:28:30;;;;;;;6.28;5.58;;;;;;;3.86;73.81;97313.03;1733634;82;21198;-73
2021/11/30 00:30:57;;;;;;;8.73;6.85;;;;;;;3.85;74.03;97301.59;1710576;82;21021;-74
2021/11/30 00:33:24;;;;;;;9.93;8.30;;;;;;;3.86;74.22;97318.34;1710210;82;21069;-74
2021/11/30 00:35:51;;;;;;;11.50;6.92;;;;;;;3.87;74.30;97327.40;1700377;84;20975;-73
2021/11/30 00:38:19;;;;;;;8.28;6.33;;;;;;;3.86;74.43;97317.02;1701459;84;21083;-84
2021/11/30 00:40:46;;;;;;;7.58;6.20;;;;;;;3.87;74.47;97318.09;1723406;82;21352;-82
2021/11/30 00:43:22;;;;;;;7.10;6.00;;;;;;;3.88;74.62;97342.29;1732792;82;20944;-82
2021/11/30 00:45:58;;;;;;;8.65;6.20;;;;;;;3.88;74.64;97329.53;1712509;82;20982;-82
2021/11/30 00:48:30;;;;;;;8.80;6.75;;;;;;;3.91;74.83;97336.44;1734419;82;20896;-85
2021/11/30 00:50:53;;;;;;;8.10;6.65;;;;;;;3.91;74.83;97336.44;1682577;84;21051;-85
2021/11/30 00:53:20;;;;;;;7.90;7.08;;;;;;;3.92;74.21;97329.27;1689173;82;21054;-85
2021/11/30 00:55:48;;;;;;;7.90;6.20;;;;;;;3.92;74.21;97329.27;1704233;82;21512;-80
2021/11/30 00:58:15;;;;;;;7.30;6.12;;;;;;;3.95;74.33;97339.36;1707696;82;20923;-80
2021/11/30 01:00:43;;;;;;;8.23;6.28;;;;;;;3.93;74.19;97330.86;1734381;82;20939;-78
2021/11/30 01:03:10;;;;;;;7.50;6.72;;;;;;;3.95;74.09;97326.06;1734568;82;21095;-81
2021/11/30 01:05:37;;;;;;;8.98;6.62;;;;;;;3.94;74.13;97374.45;1708045;82;21489;-78
2021/11/30 01:08:05;;;;;;;7.87;6.00;;;;;;;3.91;73.94;97351.06;1710450;82;21070;-77
2021/11/30 01:10:32;;;;;;;8.50;5.28;;;;;;;3.92;73.91;97357.17;1710812;82;21062;-75
2021/11/30 01:12:59;;;;;;;6.03;5.30;;;;;;;3.91;73.58;97343.61;1682303;84;21563;-78
2021/11/30 01:15:26;;;;;;;9.13;5.92;;;;;;;3.93;73.75;97344.16;1705064;82;21082;-77
2021/11/30 01:17:54;;;;;;;7.08;5.97;;;;;;;3.93;73.75;97344.16;1702298;84;21024;-80
2021/11/30 01:20:21;;;;;;;8.88;6.17;;;;;;;3.92;73.68;97348.67;1696504;82;21012;-83
2021/11/30 01:22:48;;;;;;;7.30;5.65;;;;;;;3.93;73.78;97374.17;1707207;82;21019;-81
2021/11/30 01:25:15;;;;;;;6.97;5.60;;;;;;;3.93;74.00;97354.23;1732388;82;20987;-77
2021/11/30 01:27:42;;;;;;;6.53;5.85;;;;;;;3.93;74.07;97355.56;1707625;82;20975;-73
2021/11/30 01:30:13;;;;;;;5.78;5.10;;;;;;;3.93;73.92;97350.80;1734402;82;21069;-72
2021/11/30 01:32:39;;;;;;;7.50;5.70;;;;;;;3.94;73.65;97333.23;1718113;81;21025;-81
2021/11/30 01:35:06;;;;;;;8.88;5.40;;;;;;;3.94;73.65;97333.23;1757013;81;21582;-80
2021/11/30 01:37:34;;;;;;;5.97;5.03;;;;;;;3.96;73.45;97334.31;1766227;79;21105;-74
2021/11/30 01:40:04;;;;;;;5.90;5.00;;;;;;;3.96;73.45;97334.31;1752147;81;21047;-80
2021/11/30 01:42:30;;;;;;;6.05;5.45;;;;;;;4.00;73.25;97338.56;1761163;81;21085;-80
2021/11/30 01:45:05;;;;;;;5.72;5.22;;;;;;;4.01;73.05;97352.12;1741644;81;21050;-81
2021/11/30 01:49:54;;;;;;;4.60;4.08;;;;;;;4.00;72.67;97390.41;1743102;81;21010;-85
2021/11/30 01:52:21;;;;;;;9.03;5.20;;;;;;;3.98;72.32;97358.75;1768605;81;21089;-86
2021/11/30 01:54:50;;;;;;;6.08;5.47;;;;;;;3.95;72.52;97345.47;1742467;81;21187;-75
2021/11/30 01:57:19;;;;;;;5.12;4.47;;;;;;;3.94;72.39;97357.69;1765048;81;21046;-77
2021/11/30 01:59:46;;;;;;;5.35;4.12;;;;;;;3.96;72.67;97351.59;1768827;81;20997;-76
2021/11/30 02:02:13;;;;;;;6.22;4.92;;;;;;;3.97;72.62;97362.50;1761248;81;21022;-76
2021/11/30 02:04:40;;;;;;;5.45;4.95;;;;;;;3.97;72.50;97367.02;1748894;81;21043;-76
2021/11/30 02:07:08;;;;;;;6.10;5.10;;;;;;;3.97;72.46;97363.03;1680444;84;21540;-80
2021/11/30 02:09:37;;;;;;;5.05;4.55;;;;;;;3.95;72.30;97367.27;1706361;82;21492;-79
2021/11/30 02:12:04;;;;;;;4.47;4.08;;;;;;;3.95;72.30;97366.75;1733656;82;21031;-75
2021/11/30 02:14:33;;;;;;;6.12;4.80;;;;;;;3.95;71.89;97376.05;1722230;82;21071;-88
2021/11/30 02:17:01;;;;;;;7.75;4.85;;;;;;;3.97;71.89;97351.06;1700333;82;20951;-91
2021/11/30 02:19:28;;;;;;;4.67;4.17;;;;;;;3.98;71.45;97365.97;1698381;82;21122;-89
2021/11/30 02:21:55;;;;;;;5.12;4.62;;;;;;;3.99;71.50;97351.58;1733919;82;21580;-84
2021/11/30 02:24:23;;;;;;;5.10;4.17;;;;;;;4.00;71.56;97361.96;1711593;82;20998;-87
2021/11/30 02:26:50;;;;;;;4.62;4.12;;;;;;;3.99;71.10;97367.01;1711047;82;21000;-89
2021/11/30 02:29:17;;;;;;;4.50;4.10;;;;;;;4.00;71.14;97369.94;1709053;82;21592;-89
2021/11/30 02:31:47;;;;;;;5.15;4.20;;;;;;;3.99;71.00;97388.28;1700128;82;21955;-91
2021/11/30 02:34:16;;;;;;;7.72;4.40;;;;;;;4.01;71.15;97384.03;1700421;83;20900;-88
2021/11/30 02:39:14;;;;;;;4.42;3.67;;;;;;;3.99;71.47;97364.34;1731251;82;21007;-83
2021/11/30 02:41:43;;;;;;;5.37;4.25;;;;;;;3.97;71.71;97393.08;1713810;82;20976;-86
2021/11/30 02:44:16;;;;;;;3.92;3.62;;;;;;;3.96;72.15;97367.55;1733434;82;21532;-85
2021/11/30 02:46:49;;;;;;;5.83;5.28;;;;;;;3.94;72.60;97398.91;1709615;82;21009;-83
2021/11/30 02:49:20;;;;;;;5.73;4.17;;;;;;;3.92;73.03;97413.81;1734009;82;21046;-76
2021/11/30 02:51:51;;;;;;;4.87;3.98;;;;;;;3.89;73.42;97403.69;1705498;82;21023;-87
2021/11/30 02:54:21;;;;;;;6.05;4.80;;;;;;;3.87;73.80;97372.59;1705870;82;20980;-81
2021/11/30 02:56:56;;;;;;;3.80;3.50;;;;;;;3.86;73.94;97377.64;1686829;82;21297;-88
2021/11/30 02:59:26;;;;;;;4.95;4.45;;;;;;;3.86;74.13;97385.61;1722293;82;21118;-85
2021/11/30 03:01:57;;;;;;;5.30;4.80;;;;;;;3.85;74.09;97396.50;1679616;84;21087;-83
2021/11/30 03:04:25;;;;;;;4.78;4.03;;;;;;;3.87;74.25;97410.34;1690229;82;20915;-86
2021/11/30 03:06:53;;;;;;;4.75;4.30;;;;;;;3.86;73.90;97410.06;1682056;84;21174;-90
2021/11/30 03:09:20;;;;;;;6.97;5.03;;;;;;;3.82;73.76;97384.54;1704501;84;21794;-84
2021/11/30 03:11:48;;;;;;;5.70;4.60;;;;;;;3.83;73.94;97395.98;1681653;84;21103;-93
2021/11/30 03:14:15;;;;;;;4.95;4.20;;;;;;;3.83;74.18;97395.98;1706242;82;21053;-88
2021/11/30 03:16:42;;;;;;;4.58;3.85;;;;;;;3.82;74.34;97412.45;1701839;82;21007;-81
2021/11/30 03:19:09;;;;;;;5.90;4.70;;;;;;;3.81;74.47;97404.20;1671262;84;21453;-84
2021/11/30 03:21:36;;;;;;;6.45;4.97;;;;;;;3.79;74.23;97428.91;1703549;84;21077;-84
2021/11/30 03:24:04;;;;;;;5.95;5.10;;;;;;;3.79;74.06;97424.16;1678774;82;20939;-89
2021/11/30 03:26:32;;;;;;;6.60;5.25;;;;;;;3.78;73.94;97393.30;1706983;82;20987;-83
2021/11/30 03:28:59;;;;;;;6.67;5.10;;;;;;;3.75;73.84;97389.30;1734614;82;21452;-86
2021/11/30 03:34:01;;;;;;;4.42;4.03;;;;;;;3.76;73.79;97401.53;1707355;82;21817;-76
2021/11/30 03:36:32;;;;;;;6.65;5.30;;;;;;;3.76;73.52;97410.84;1707141;82;21696;-81
2021/11/30 03:39:01;;;;;;;5.65;5.08;;;;;;;3.74;73.18;97415.60;1735988;82;21046;-80
2021/11/30 03:41:30;;;;;;;7.40;4.83;;;;;;;3.74;73.17;97385.03;1708731;82;21042;-82
2021/11/30 03:43:57;;;;;;;5.45;4.95;;;;;;;3.74;73.25;97396.22;1707568;82;21011;-83
2021/11/30 03:46:23;;;;;;;5.72;5.17;;;;;;;3.75;73.18;97423.05;1702852;82;21261;-81
2021/11/30 03:48:50;;;;;;;5.03;4.58;;;;;;;3.75;73.05;97394.61;1717871;82;20987;-81
2021/11/30 03:51:19;;;;;;;6.47;4.95;;;;;;;3.76;73.16;97428.64;1702170;84;21595;-79
2021/11/30 03:53:47;;;;;;;8.73;5.55;;;;;;;3.74;72.98;97407.63;1702265;84;21110;-88
2021/11/30 03:56:14;;;;;;;6.20;5.53;;;;;;;3.74;73.15;97411.61;1676835;84;21618;-89
2021/11/30 03:58:41;;;;;;;6.97;6.15;;;;;;;3.75;73.09;97409.76;1675729;84;21202;-86
2021/11/30 04:01:09;;;;;;;7.33;4.50;;;;;;;3.74;73.26;97394.34;1702065;84;21018;-88
2021/11/30 04:03:38;;;;;;;6.95;5.37;;;;;;;3.74;73.12;97450.16;1702337;82;21024;-83
2021/11/30 04:06:05;;;;;;;5.78;5.17;;;;;;;3.75;73.36;97485.52;1728602;82;21516;-85
2021/11/30 04:08:33;;;;;;;7.90;6.33;;;;;;;3.75;73.49;97421.72;1734656;82;21086;-87
2021/11/30 04:11:00;;;;;;;7.33;6.42;;;;;;;3.74;73.53;97426.23;1719863;82;21136;-86
2021/11/30 04:13:26;;;;;;;6.35;5.05;;;;;;;3.74;73.61;97436.87;1742864;81;20932;-78
2021/11/30 04:15:53;;;;;;;9.55;6.78;;;;;;;3.74;73.78;97439.52;1742695;81;21036;-78
2021/11/30 04:18:21;;;;;;;5.45;4.67;;;;;;;3.74;73.50;97452.81;1766973;81;20978;-81
2021/11/30 04:20:48;;;;;;;7.60;6.90;;;;;;;3.76;73.59;97446.72;1768492;81;21069;-87
2021/11/30 04:23:15;;;;;;;5.55;4.80;;;;;;;3.76;73.32;97503.88;1747926;81;21210;-87
2021/11/30 04:25:42;;;;;;;10.23;6.50;;;;;;;3.76;73.32;97486.59;1742163;81;21316;-88
2021/11/30 04:28:09;;;;;;;7.40;5.45;;;;;;;3.77;73.26;97457.63;1769207;80;20957;-88
2021/11/30 04:30:36;;;;;;;6.40;5.00;;;;;;;3.78;73.23;97491.13;1767929;80;20914;-83
2021/11/30 04:33:05;;;;;;;6.10;5.42;;;;;;;3.77;73.19;97504.67;1747256;81;21108;-85
2021/11/30 04:35:34;;;;;;;6.28;5.58;;;;;;;3.78;73.25;97478.37;1766334;80;21070;-79
2021/11/30 04:38:02;;;;;;;6.37;5.78;;;;;;;3.78;73.04;97479.70;1767354;81;21519;-82
2021/11/30 04:40:31;;;;;;;9.30;5.67;;;;;;;3.77;73.02;97490.86;1720928;81;20905;-84
2021/11/30 04:42:58;;;;;;;7.65;5.85;;;;;;;3.78;72.86;97497.78;1722974;81;22381;-84
2021/11/30 04:45:29;;;;;;;8.15;5.78;;;;;;;3.79;72.84;97498.02;1718917;82;21512;-74
2021/11/30 04:47:56;;;;;;;6.55;5.67;;;;;;;3.80;72.87;97498.83;1718977;82;21952;-83
2021/11/30 04:50:26;;;;;;;6.05;5.35;;;;;;;3.79;72.78;97522.50;1686741;83;21013;-70
2021/11/30 04:52:56;;;;;;;5.87;5.28;;;;;;;3.80;72.86;97478.89;1697674;83;21070;-91
2021/11/30 04:55:26;;;;;;;6.58;6.00;;;;;;;3.80;72.76;97494.84;1681101;83;20968;-84
2021/11/30 04:57:57;;;;;;;5.90;4.92;;;;;;;3.80;72.70;97501.48;1728564;81;21540;-91
2021/11/30 05:00:25;;;;;;;7.45;4.70;;;;;;;3.78;72.48;97504.42;1723990;83;21014;-87
2021/11/30 05:02:52;;;;;;;7.47;4.87;;;;;;;3.80;72.65;97536.05;1664364;83;21012;-89
2021/11/30 05:05:19;;;;;;;6.85;5.15;;;;;;;3.81;72.71;97509.21;1693848;83;21023;-85
2021/11/30 05:07:47;;;;;;;6.47;5.87;;;;;;;3.79;72.82;97506.55;1707479;83;21122;-87
2021/11/30 05:10:14;;;;;;;7.12;5.42;;;;;;;3.77;73.00;97506.80;1692834;84;21545;-74
2021/11/30 05:12:41;;;;;;;7.00;6.30;;;;;;;3.77;73.25;97508.14;1707867;83;21613;-87
2021/11/30 05:15:10;;;;;;;7.90;6.10;;;;;;;3.76;73.35;97518.48;1715339;83;20937;-86
2021/11/30 05:17:38;;;;;;;8.28;6.47;;;;;;;3.77;73.47;97519.30;1685108;84;21305;-86
2021/11/30 05:20:08;;;;;;;7.28;5.40;;;;;;;3.77;73.59;97515.31;1706785;82;21493;-88
2021/11/30 05:22:36;;;;;;;5.90;5.30;;;;;;;3.74;73.26;97510.52;1765585;81;21030;-85
2021/11/30 05:25:06;;;;;;;6.42;5.78;;;;;;;3.74;72.98;97522.48;1735207;81;21940;-88
2021/11/30 05:27:39;;;;;;;8.03;5.90;;;;;;;3.73;72.84;97536.83;1705113;84;21042;-90
2021/11/30 05:30:02;;;;;;;5.87;4.75;;;;;;;3.73;72.80;97530.98;1710348;82;21039;-79
2021/11/30 05:32:30;;;;;;;7.55;5.58;;;;;;;3.73;72.67;97564.20;1714094;81;21015;-84
2021/11/30 05:34:57;;;;;;;6.03;4.78;;;;;;;3.73;72.40;97571.38;1771186;81;21010;-88
2021/11/30 05:37:24;;;;;;;6.35;5.00;;;;;;;3.72;71.75;97593.70;1744367;80;21202;-89
2021/11/30 05:39:51;;;;;;;5.67;4.97;;;;;;;3.73;71.80;97561.55;1762934;81;20947;-83
2021/11/30 05:42:19;;;;;;;7.05;5.10;;;;;;;3.74;71.73;97566.34;1744873;81;21009;-85
2021/11/30 05:44:46;;;;;;;8.78;5.12;;;;;;;3.74;71.51;97589.70;1769316;81;21504;-85
2021/11/30 05:47:13;;;;;;;7.10;5.10;;;;;;;3.76;71.44;97585.47;1769473;80;20999;-93
2021/11/30 05:49:40;;;;;;;5.47;4.60;;;;;;;3.77;71.33;97575.92;1769711;80;21472;-92
2021/11/30 05:52:07;;;;;;;4.55;4.10;;;;;;;3.79;70.88;97585.75;1735655;81;21002;-80
2021/11/30 05:54:36;;;;;;;4.70;4.17;;;;;;;3.80;70.32;97605.16;1720330;81;21539;-78
2021/11/30 05:57:12;;;;;;;8.00;4.75;;;;;;;3.79;70.15;97592.39;1735161;82;20979;-80
2021/11/30 05:59:37;;;;;;;5.20;4.60;;;;;;;3.79;70.22;97630.94;1700165;84;21062;-78
2021/11/30 06:02:04;;;;;;;4.62;4.22;;;;;;;3.80;70.45;97590.54;1705727;82;20986;-81
2021/11/30 06:04:31;;;;;;;5.53;4.80;;;;;;;3.79;70.13;97627.52;1719835;82;21171;-89
2021/11/30 06:06:59;;;;;;;7.50;4.10;;;;;;;3.78;69.97;97640.00;1744821;81;21004;-89
2021/11/30 06:09:26;;;;;;;5.70;4.53;;;;;;;3.77;70.10;97643.70;1769972;81;21054;-89
2021/11/30 06:11:53;;;;;;;7.33;5.20;;;;;;;3.76;70.11;97630.14;1770749;81;20960;-87
2021/11/30 06:14:20;;;;;;;7.12;4.45;;;;;;;3.76;70.38;97636.78;1767360;80;21975;-84
2021/11/30 06:16:48;;;;;;;4.25;3.85;;;;;;;3.75;70.39;97632.52;1749944;81;20936;-83
2021/11/30 06:19:19;;;;;;;3.60;3.30;;;;;;;3.78;70.39;97633.88;1755696;81;21535;-84
2021/11/30 06:21:47;;;;;;;5.37;4.00;;;;;;;3.80;70.27;97651.69;1741937;81;21030;-83
2021/11/30 06:24:14;;;;;;;2.45;2.25;;;;;;;3.77;69.76;97678.27;1768240;81;21089;-84
2021/11/30 06:26:41;;;;;;;4.62;2.50;;;;;;;3.75;67.99;97684.87;1718189;81;21074;-76
2021/11/30 06:29:09;;;;;;;3.42;3.10;;;;;;;3.73;67.77;97662.55;1768679;80;20978;-82
2021/11/30 06:31:36;;;;;;;3.10;2.70;;;;;;;3.71;67.21;97686.45;1768625;80;21476;-83
2021/11/30 06:34:03;;;;;;;2.02;1.90;;;;;;;3.67;66.55;97690.15;1717164;82;21027;-88
2021/11/30 06:36:32;;;;;;;3.08;2.10;;;;;;;3.61;64.90;97794.00;1762404;81;21102;-89
2021/11/30 06:39:00;;;;;;;1.87;1.77;;;;;;;3.58;65.02;97688.22;1712196;82;21195;-85
2021/11/30 06:41:27;;;;;;;4.03;1.62;;;;;;;3.56;65.40;97690.31;1711120;81;21328;-88
2021/11/30 06:43:55;;;;;;;2.10;1.90;;;;;;;3.50;64.42;97702.78;1742621;81;21030;-87
2021/11/30 06:46:22;;;;;;;2.60;1.90;;;;;;;3.48;64.25;97726.94;1768693;80;20951;-84
2021/11/30 06:48:49;;;;;;;2.00;1.90;;;;;;;3.45;64.40;97684.91;1770521;81;21026;-83
2021/11/30 06:51:16;;;;;;;1.87;1.77;;;;;;;3.44;64.28;97722.37;1769790;81;21083;-87
2021/11/30 06:53:43;;;;;;;2.33;2.15;;;;;;;3.44;63.79;97691.30;1693776;82;21098;-86
2021/11/30 06:56:10;;;;;;;3.67;2.47;;;;;;;3.42;63.22;97759.02;1735113;82;21007;-87
2021/11/30 06:58:37;;;;;;;2.42;1.72;;;;;;;3.41;63.43;97724.19;1748229;81;20947;-79
2021/11/30 07:01:06;;;;;;;3.08;2.27;;;;;;;3.40;63.77;97718.62;1768225;81;20986;-80
2021/11/30 07:03:33;;;;;;;2.40;2.08;;;;;;;3.41;64.09;97702.41;1743195;81;21128;-78
2021/11/30 07:06:15;;;;;;;3.62;1.67;;;;;;;3.40;64.15;97731.39;1717453;81;21031;-78
2021/11/30 07:08:49;;;;;;;1.60;1.50;;;;;;;3.39;64.21;97698.42;1730455;81;21006;-81
2021/11/30 07:11:19;;;;;;;2.20;2.00;;;;;;;3.38;63.88;97718.87;1701845;84;21043;-87
2021/11/30 07:13:40;;;;;;;1.82;1.72;;;;;;;3.37;63.83;97713.28;1723663;82;21022;-89
2021/11/30 07:16:07;;;;;;;2.50;2.30;;;;;;;3.36;63.34;97737.42;1726789;82;21970;-85
2021/11/30 07:18:36;;;;;;;2.62;1.80;;;;;;;3.36;63.32;97687.76;1735748;82;21005;-92
2021/11/30 07:21:05;;;;;;;2.77;1.80;;;;;;;3.34;63.26;97715.13;1718719;82;20963;-91
2021/11/30 07:23:32;;;;;;;2.42;2.02;;;;;;;3.35;63.11;97711.41;1709641;82;20939;-91
2021/11/30 07:26:00;;;;;;;1.62;1.52;;;;;;;3.35;63.20;97687.51;1686769;82;20997;-91
2021/11/30 07:28:30;;;;;;;2.42;2.22;;;;;;;3.37;63.32;97696.53;1681886;83;20889;-86
2021/11/30 07:31:04;;;;;;;2.50;2.30;;;;;;;3.39;63.31;97677.97;1677623;84;20994;-85
2021/11/30 07:33:33;;;;;;;3.22;1.82;;;;;;;3.42;63.09;97739.89;1685708;84;21064;-80
2021/11/30 07:36:01;;;;;;;3.20;2.15;;;;;;;3.43;62.92;97689.69;1694166;82;21032;-80
2021/11/30 07:38:28;;;;;;;8.63;2.50;;;;;;;3.46;63.13;97711.77;1714601;82;21865;-83
2021/11/30 07:40:57;;;;;;;2.62;2.08;;;;;;;3.47;62.21;97716.55;1735838;82;22506;-81
2021/11/30 07:43:24;;;;;;;2.37;1.98;;;;;;;3.48;61.77;97740.22;1714998;82;20965;-85
2021/11/30 07:45:51;;;;;;;2.67;2.02;;;;;;;3.49;61.55;97698.52;1705490;83;20994;-86
2021/11/30 07:48:18;;;;;;;1.85;1.75;;;;;;;3.51;61.41;97745.55;1689386;83;21058;-83
2021/11/30 07:50:45;;;;;;;2.20;1.70;;;;;;;3.53;60.84;97778.52;1677100;84;21003;-84
2021/11/30 07:53:13;;;;;;;8.45;2.60;;;;;;;3.54;61.00;97717.16;1705937;82;21034;-89
2021/11/30 07:55:40;;;;;;;1.92;1.82;;;;;;;3.55;60.66;97713.98;1703831;82;21080;-86
2021/11/30 07:58:07;;;;;;;3.02;2.72;;;;;;;3.55;60.68;97723.28;1714986;82;21040;-84
2021/11/30 08:00:36;;;;;;;1.90;1.77;;;;;;;3.58;60.77;97732.06;1736324;82;21462;-83
2021/11/30 08:03:03;;;;;;;2.15;1.70;;;;;;;3.58;60.59;97734.72;1715221;82;20985;-82
2021/11/30 08:05:32;;;;;;;2.27;2.00;;;;;;;3.58;60.35;97746.16;1686339;82;21144;-88
2021/11/30 08:08:01;;;;;;;1.55;1.45;;;;;;;3.59;60.59;97724.38;1713519;82;20989;-86
2021/11/30 08:10:29;;;;;;;1.65;1.55;;;;;;;3.59;59.82;97709.23;1736004;82;21008;-86
2021/11/30 08:12:57;;;;;;;3.70;2.00;;;;;;;3.61;59.70;97736.34;1736072;82;21064;-77
2021/11/30 08:15:25;;;;;;;1.92;1.57;;;;;;;3.61;59.62;97750.95;1734267;82;21158;-81
2021/11/30 08:17:52;;;;;;;2.22;1.95;;;;;;;3.61;59.84;97744.31;1714889;82;21003;-85
2021/11/30 08:20:19;;;;;;;2.00;1.80;;;;;;;3.63;60.13;97762.67;1719816;82;21906;-81
2021/11/30 08:22:46;;;;;;;2.08;1.95;;;;;;;3.63;60.11;97773.30;1735919;82;21593;-80
2021/11/30 08:25:13;;;;;;;2.17;1.98;;;;;;;3.63;60.19;97758.16;1729888;82;21071;-79
2021/11/30 08:27:40;;;;;;;2.67;2.47;;;;;;;3.63;60.45;97723.61;1730409;82;21059;-80
2021/11/30 08:30:08;;;;;;;2.62;1.98;;;;;;;3.66;60.77;97726.27;1715257;82;21093;-78
2021/11/30 08:32:40;;;;;;;2.62;1.75;;;;;;;3.70;60.19;97743.31;1721563;82;21530;-76
2021/11/30 08:35:09;;;;;;;2.92;2.33;;;;;;;3.71;59.75;97748.39;1689648;84;21539;-82
2021/11/30 08:37:37;;;;;;;3.83;1.87;;;;;;;3.74;59.56;97751.86;1677330;85;21476;-77
2021/11/30 08:40:07;;;;;;;6.60;2.60;;;;;;;3.78;59.50;97742.88;1690058;83;21015;-78
2021/11/30 08:42:36;;;;;;;2.67;2.10;;;;;;;3.82;59.77;97761.25;1679538;82;21540;-74
2021/11/30 08:45:06;;;;;;;3.17;2.33;;;;;;;3.83;59.57;97725.63;1729542;82;20970;-79
2021/11/30 08:47:33;;;;;;;2.62;2.25;;;;;;;3.85;59.80;97730.15;1700365;82;20902;-77
2021/11/30 08:50:00;;;;;;;2.95;2.65;;;;;;;3.89;60.22;97736.03;1739351;82;20949;-75
2021/11/30 08:52:28;;;;;;;6.10;2.45;;;;;;;3.92;60.19;97746.70;1736354;82;20914;-75
2021/11/30 08:54:56;;;;;;;10.50;3.15;;;;;;;3.92;60.30;97748.84;1736390;82;21692;-79
2021/11/30 08:57:24;;;;;;;2.42;2.10;;;;;;;3.93;60.50;97742.99;1715194;82;20972;-80
2021/11/30 08:59:52;;;;;;;3.90;3.33;;;;;;;3.91;60.74;97793.77;1734260;82;20921;-85
2021/11/30 09:02:23;;;;;;;3.00;2.60;;;;;;;3.90;60.14;97766.09;1688750;82;21040;-83
2021/11/30 09:04:50;;;;;;;3.22;2.92;;;;;;;3.88;60.68;97734.98;1739558;82;21039;-85
2021/11/30 09:07:17;;;;;;;4.25;3.27;;;;;;;3.90;61.11;97763.42;1718813;78;21043;-81
2021/11/30 09:09:47;;;;;;;3.30;2.25;;;;;;;3.90;60.78;97740.83;1739618;78;21458;-93
2021/11/30 09:12:17;;;;;;;3.80;2.70;;;;;;;3.89;60.99;97759.96;1701535;82;21030;-92
2021/11/30 09:14:45;;;;;;;3.22;2.62;;;;;;;3.88;60.91;97766.36;1716072;82;21091;-91
2021/11/30 09:17:13;;;;;;;3.08;2.50;;;;;;;3.86;60.75;97745.05;1716020;81;21008;-88
2021/11/30 09:19:40;;;;;;;5.75;3.98;;;;;;;3.86;60.95;97716.61;1735764;82;22164;-83
2021/11/30 09:22:07;;;;;;;4.30;3.17;;;;;;;3.87;60.51;97740.82;1707793;82;21043;-86
2021/11/30 09:24:34;;;;;;;3.25;2.12;;;;;;;3.87;59.48;97751.98;1736575;82;20956;-87
2021/11/30 09:27:02;;;;;;;3.62;2.37;;;;;;;3.86;59.43;97713.15;1708487;83;21006;-88
2021/11/30 09:29:32;;;;;;;4.90;2.80;;;;;;;3.87;59.56;97710.77;1707229;83;21009;-88
2021/11/30 09:32:00;;;;;;;2.70;2.40;;;;;;;3.87;59.37;97741.34;1684609;82;21874;-85
2021/11/30 09:34:29;;;;;;;2.47;2.27;;;;;;;3.87;59.06;97719.55;1689300;83;20963;-88
2021/11/30 09:36:56;;;;;;;4.10;3.22;;;;;;;3.85;58.72;97785.98;1677030;85;21542;-90
2021/11/30 09:39:24;;;;;;;2.67;2.47;;;;;;;3.83;59.21;97729.63;1689093;82;21041;-86
2021/11/30 09:41:50;;;;;;;2.50;2.30;;;;;;;3.81;59.42;97717.09;1679989;82;21061;-81
2021/11/30 09:44:17;;;;;;;2.50;2.30;;;;;;;3.81;59.77;97711.25;1689232;83;21040;-86
2021/11/30 09:46:45;;;;;;;3.62;2.52;;;;;;;3.82;60.17;97712.06;1691084;82;20931;-85
2021/11/30 09:49:14;;;;;;;8.83;3.45;;;;;;;3.84;60.58;97708.08;1683686;83;20983;-85
2021/11/30 09:51:41;;;;;;;3.27;3.00;;;;;;;3.85;61.04;97711.02;1699591;82;21832;-76
2021/11/30 09:54:10;;;;;;;3.50;2.77;;;;;;;3.86;61.37;97715.28;1734865;82;21504;-82
2021/11/30 09:56:37;;;;;;;3.83;3.37;;;;;;;3.87;61.71;97714.76;1691530;83;21586;-82
2021/11/30 09:59:04;;;;;;;4.67;3.45;;;;;;;3.86;61.71;97749.84;1690932;82;21001;-83
2021/11/30 10:01:31;;;;;;;2.80;2.52;;;;;;;3.84;61.55;97708.60;1723011;82;21048;-93
2021/11/30 10:04:01;;;;;;;3.52;2.75;;;;;;;3.83;61.37;97703.84;1714786;82;21108;-90
2021/11/30 10:06:28;;;;;;;5.85;2.50;;;;;;;3.86;61.27;97701.19;1724364;82;21064;-87
2021/11/30 10:08:56;;;;;;;3.77;2.50;;;;;;;3.87;61.03;97712.91;1737469;82;21086;-93
2021/11/30 10:11:37;;;;;;;3.05;2.70;;;;;;;3.88;60.58;97685.79;1729147;82;20953;-80
2021/11/30 10:14:20;;;;;;;4.65;3.22;;;;;;;3.88;60.19;97680.47;1679188;83;21027;-81
2021/11/30 10:17:22;;;;;;;3.62;2.70;;;;;;;3.91;60.32;97685.27;1728244;82;21012;-86
2021/11/30 10:20:00;;;;;;;3.22;2.98;;;;;;;3.90;60.14;97685.79;1711378;82;21573;-84
2021/11/30 10:22:48;;;;;;;6.78;2.90;;;;;;;3.87;60.09;97696.95;1736270;82;21146;-88
2021/11/30 10:25:28;;;;;;;2.95;2.52;;;;;;;3.85;60.52;97695.06;1698734;83;21094;-82
2021/11/30 10:28:14;;;;;;;8.10;2.70;;;;;;;3.85;60.41;97697.72;1711017;82;21051;-84
2021/11/30 10:30:45;;;;;;;4.45;2.75;;;;;;;3.85;60.62;97728.82;1736124;82;21085;-80
2021/11/30 10:33:21;;;;;;;2.52;2.33;;;;;;;3.84;60.97;97728.54;1702193;82;21015;-87
2021/11/30 10:35:58;;;;;;;3.50;3.05;;;;;;;3.84;60.97;97728.54;1657275;85;21631;-83
2021/11/30 10:38:36;;;;;;;4.15;3.37;;;;;;;3.86;60.98;97713.95;1710713;82;21098;-84
2021/11/30 10:41:24;;;;;;;3.55;3.10;;;;;;;3.86;60.95;97735.22;1708854;82;20969;-83
2021/11/30 10:43:59;;;;;;;3.42;2.60;;;;;;;3.85;60.75;97737.59;1725039;82;21018;-82
2021/11/30 10:46:36;;;;;;;3.75;2.80;;;;;;;3.83;60.73;97736.27;1705608;83;21135;-82
2021/11/30 10:49:05;;;;;;;3.80;2.83;;;;;;;3.82;60.80;97761.25;1714711;82;21350;-82
2021/11/30 10:51:44;;;;;;;4.15;2.40;;;;;;;3.80;60.78;97782.76;1730001;82;21562;-82
2021/11/30 10:54:12;;;;;;;3.08;2.85;;;;;;;3.77;60.72;97756.69;1728713;82;21538;-83
2021/11/30 10:56:39;;;;;;;3.95;2.80;;;;;;;3.74;60.53;97757.17;1734413;82;21076;-81
2021/11/30 10:59:06;;;;;;;3.00;2.70;;;;;;;3.74;60.98;97744.44;1712401;82;21068;-82
2021/11/30 11:01:36;;;;;;;4.35;3.50;;;;;;;3.74;61.31;97743.88;1704587;82;20910;-84
2021/11/30 11:04:08;;;;;;;4.00;3.00;;;;;;;3.74;61.62;97755.07;1713169;82;20989;-83
2021/11/30 11:06:37;;;;;;;5.80;3.15;;;;;;;3.74;61.83;97740.45;1692480;82;21072;-82
2021/11/30 11:09:11;;;;;;;2.87;2.62;;;;;;;3.75;61.99;97753.99;1736482;82;21037;-82
2021/11/30 11:11:44;;;;;;;5.58;2.90;;;;;;;3.77;62.04;97747.91;1732672;82;20951;-86
2021/11/30 11:14:25;;;;;;;3.00;2.62;;;;;;;3.79;62.21;97740.49;1712806;82;21735;-79
2021/11/30 11:16:55;;;;;;;2.67;2.42;;;;;;;3.79;62.21;97738.61;1686779;84;21067;-84
2021/11/30 11:19:43;;;;;;;3.12;2.60;;;;;;;3.80;62.28;97735.42;1704586;83;21025;-85
2021/11/30 11:22:18;;;;;;;3.92;3.12;;;;;;;3.81;62.35;97755.64;1722555;81;21063;-75
2021/11/30 11:24:48;;;;;;;3.40;3.10;;;;;;;3.80;62.24;97768.13;1767001;81;21069;-75
2021/11/30 11:27:15;;;;;;;4.08;3.10;;;;;;;3.78;62.03;97747.66;1768333;80;21158;-73
2021/11/30 11:29:43;;;;;;;4.33;3.40;;;;;;;3.74;62.08;97759.06;1737244;81;20939;-73
2021/11/30 11:32:10;;;;;;;3.20;2.87;;;;;;;3.70;62.28;97802.60;1725691;81;21495;-75
2021/11/30 11:34:38;;;;;;;4.08;3.00;;;;;;;3.69;62.63;97753.70;1742481;81;21006;-80
2021/11/30 11:37:12;;;;;;;5.03;3.05;;;;;;;3.67;62.60;97775.73;1754632;81;21078;-78
2021/11/30 11:39:37;;;;;;;4.00;2.77;;;;;;;3.67;62.84;97775.73;1767491;81;21072;-75
2021/11/30 11:42:10;;;;;;;2.52;2.30;;;;;;;3.67;62.54;97777.05;1710325;82;21037;-74
2021/11/30 11:44:38;;;;;;;7.35;3.08;;;;;;;3.66;62.36;97773.59;1712413;82;21033;-78
2021/11/30 11:47:11;;;;;;;9.93;3.55;;;;;;;3.68;62.36;97783.45;1734418;82;20975;-81
2021/11/30 11:49:45;;;;;;;3.47;3.00;;;;;;;3.67;62.33;97761.11;1735082;82;21050;-82
2021/11/30 11:52:30;;;;;;;3.80;3.50;;;;;;;3.67;62.50;97763.24;1734231;82;21072;-79
2021/11/30 11:55:15;;;;;;;3.30;3.00;;;;;;;3.66;62.78;97764.30;1756215;81;38696;-85
2021/11/30 11:58:02;;;;;;;2.80;2.60;;;;;;;3.66;63.08;97760.83;1769982;81;21057;-78